sensor_id;sensor_type;location;lat;lon;timestamp;temperature;humidity
17968;DHT22;9109;48.050;11.696;2022-09-17T03:47:42;10.80;99.90
17968;DHT22;9109;48.050;11.696;2022-09-17T03:50:46;10.90;99.90
17968;DHT22;9109;48.050;11.696;2022-09-17T03:53:53;10.90;99.90
17968;DHT22;9109;48.050;11.696;2022-09-17T03:56:55;11.00;99.90
17968;DHT22;9109;48.050;11.696;2022-09-17T03:59:57;11.00;99.90
17968;DHT22;9109;48.050;11.696;2022-09-17T04:03:01;11.10;99.90
17968;DHT22;9109;48.050;11.696;2022-09-17T04:06:03;11.10;99.90
17968;DHT22;9109;48.050;11.696;2022-09-17T04:09:05;11.10;99.90
17968;DHT22;9109;48.050;11.696;2022-09-17T04:12:08;11.10;99.90
17968;DHT22;9109;48.050;11.696;2022-09-17T04:15:10;11.00;99.90
17968;DHT22;9109;48.050;11.696;2022-09-17T04:18:13;10.90;99.90
17968;DHT22;9109;48.050;11.696;2022-09-17T04:21:15;10.90;99.90
17968;DHT22;9109;48.050;11.696;2022-09-17T04:24:17;11.00;99.90
17968;DHT22;9109;48.050;11.696;2022-09-17T04:27:19;11.00;99.90
17968;DHT22;9109;48.050;11.696;2022-09-17T04:30:21;11.00;99.90
17968;DHT22;9109;48.050;11.696;2022-09-17T04:33:25;11.00;99.90
17968;DHT22;9109;48.050;11.696;2022-09-17T04:36:27;11.10;99.90
17968;DHT22;9109;48.050;11.696;2022-09-17T04:39:29;11.00;99.90
17968;DHT22;9109;48.050;11.696;2022-09-17T04:42:31;11.00;99.90
17968;DHT22;9109;48.050;11.696;2022-09-17T04:45:33;10.70;99.90
17968;DHT22;9109;48.050;11.696;2022-09-17T04:48:36;10.50;99.90
17968;DHT22;9109;48.050;11.696;2022-09-17T04:51:38;10.60;99.90
17968;DHT22;9109;48.050;11.696;2022-09-17T04:54:40;10.70;99.90
17968;DHT22;9109;48.050;11.696;2022-09-17T04:57:45;10.70;99.90
17968;DHT22;9109;48.050;11.696;2022-09-17T05:00:47;10.80;99.90
17968;DHT22;9109;48.050;11.696;2022-09-17T05:03:50;10.70;99.90
17968;DHT22;9109;48.050;11.696;2022-09-17T05:06:52;10.80;99.90
17968;DHT22;9109;48.050;11.696;2022-09-17T05:09:54;10.70;99.90
17968;DHT22;9109;48.050;11.696;2022-09-17T05:12:56;10.70;99.90
17968;DHT22;9109;48.050;11.696;2022-09-17T05:15:58;10.70;99.90
17968;DHT22;9109;48.050;11.696;2022-09-17T05:19:02;10.80;99.90
17968;DHT22;9109;48.050;11.696;2022-09-17T05:22:03;10.80;99.90
17968;DHT22;9109;48.050;11.696;2022-09-17T05:25:06;10.80;99.90
17968;DHT22;9109;48.050;11.696;2022-09-17T05:28:08;10.80;99.90
17968;DHT22;9109;48.050;11.696;2022-09-17T05:31:10;10.90;99.90
17968;DHT22;9109;48.050;11.696;2022-09-17T05:34:14;10.90;99.90
17968;DHT22;9109;48.050;11.696;2022-09-17T05:37:16;10.80;99.90
17968;DHT22;9109;48.050;11.696;2022-09-17T05:40:30;10.80;99.90
17968;DHT22;9109;48.050;11.696;2022-09-17T05:43:32;10.80;99.90
17968;DHT22;9109;48.050;11.696;2022-09-17T05:46:34;10.70;99.90
17968;DHT22;9109;48.050;11.696;2022-09-17T05:50:07;10.70;99.90
17968;DHT22;9109;48.050;11.696;2022-09-17T05:53:26;10.80;99.90
17968;DHT22;9109;48.050;11.696;2022-09-17T05:56:28;10.80;99.90
17968;DHT22;9109;48.050;11.696;2022-09-17T05:59:30;10.70;99.90
17968;DHT22;9109;48.050;11.696;2022-09-17T06:02:32;10.80;99.90
17968;DHT22;9109;48.050;11.696;2022-09-17T06:05:39;10.80;99.90
17968;DHT22;9109;48.050;11.696;2022-09-17T06:08:41;10.70;99.90
17968;DHT22;9109;48.050;11.696;2022-09-17T06:11:43;10.70;99.90
17968;DHT22;9109;48.050;11.696;2022-09-17T06:14:46;10.70;99.90
17968;DHT22;9109;48.050;11.696;2022-09-17T06:17:48;10.70;99.90
17968;DHT22;9109;48.050;11.696;2022-09-17T06:21:11;10.60;99.90
17968;DHT22;9109;48.050;11.696;2022-09-17T06:24:16;10.60;99.90
17968;DHT22;9109;48.050;11.696;2022-09-17T06:27:21;10.60;99.90
17968;DHT22;9109;48.050;11.696;2022-09-17T06:30:45;10.40;99.90
17968;DHT22;9109;48.050;11.696;2022-09-17T06:33:47;10.40;99.90
17968;DHT22;9109;48.050;11.696;2022-09-17T06:36:52;10.40;99.90
17968;DHT22;9109;48.050;11.696;2022-09-17T06:39:54;10.40;99.90
17968;DHT22;9109;48.050;11.696;2022-09-17T06:42:56;10.50;99.90
17968;DHT22;9109;48.050;11.696;2022-09-17T06:46:00;10.60;99.90
17968;DHT22;9109;48.050;11.696;2022-09-17T06:49:02;10.70;99.90
17968;DHT22;9109;48.050;11.696;2022-09-17T06:52:24;10.80;99.90
17968;DHT22;9109;48.050;11.696;2022-09-17T06:55:26;10.90;99.90
17968;DHT22;9109;48.050;11.696;2022-09-17T06:58:29;11.00;99.90
17968;DHT22;9109;48.050;11.696;2022-09-17T07:01:31;11.00;99.90
17968;DHT22;9109;48.050;11.696;2022-09-17T07:04:33;11.10;99.90
17968;DHT22;9109;48.050;11.696;2022-09-17T07:07:37;11.00;99.90
17968;DHT22;9109;48.050;11.696;2022-09-17T07:10:40;11.00;99.90
17968;DHT22;9109;48.050;11.696;2022-09-17T08:08:14;11.00;99.90
17968;DHT22;9109;48.050;11.696;2022-09-17T08:11:17;11.10;99.90
17968;DHT22;9109;48.050;11.696;2022-09-17T08:14:19;11.00;99.90
17968;DHT22;9109;48.050;11.696;2022-09-17T08:17:21;11.10;99.90
17968;DHT22;9109;48.050;11.696;2022-09-17T08:20:23;11.20;99.90
17968;DHT22;9109;48.050;11.696;2022-09-17T08:23:28;11.20;99.90
17968;DHT22;9109;48.050;11.696;2022-09-17T08:26:30;11.30;99.90
17968;DHT22;9109;48.050;11.696;2022-09-17T08:29:32;11.40;99.90
17968;DHT22;9109;48.050;11.696;2022-09-17T08:32:34;11.50;99.90
17968;DHT22;9109;48.050;11.696;2022-09-17T08:35:36;11.60;99.90
17968;DHT22;9109;48.050;11.696;2022-09-17T08:38:40;11.70;99.90
17968;DHT22;9109;48.050;11.696;2022-09-17T08:41:48;11.80;99.90
17968;DHT22;9109;48.050;11.696;2022-09-17T08:44:51;11.90;99.90
17968;DHT22;9109;48.050;11.696;2022-09-17T08:48:00;11.80;99.90
17968;DHT22;9109;48.050;11.696;2022-09-17T08:51:11;11.90;99.90
17968;DHT22;9109;48.050;11.696;2022-09-17T08:54:22;12.00;99.90
17968;DHT22;9109;48.050;11.696;2022-09-17T08:57:33;12.20;99.90
17968;DHT22;9109;48.050;11.696;2022-09-17T09:00:40;12.20;99.90
17968;DHT22;9109;48.050;11.696;2022-09-17T09:04:03;12.10;99.90
17968;DHT22;9109;48.050;11.696;2022-09-17T09:07:12;12.00;99.90
17968;DHT22;9109;48.050;11.696;2022-09-17T09:10:20;11.90;99.90
17968;DHT22;9109;48.050;11.696;2022-09-17T09:13:27;11.70;99.90
17968;DHT22;9109;48.050;11.696;2022-09-17T09:16:31;11.60;99.90
17968;DHT22;9109;48.050;11.696;2022-09-17T09:19:40;11.60;99.90
17968;DHT22;9109;48.050;11.696;2022-09-17T09:22:48;11.60;99.90
17968;DHT22;9109;48.050;11.696;2022-09-17T09:26:01;11.60;99.90
17968;DHT22;9109;48.050;11.696;2022-09-17T09:29:11;11.70;99.90
17968;DHT22;9109;48.050;11.696;2022-09-17T09:32:27;11.60;99.90
17968;DHT22;9109;48.050;11.696;2022-09-17T09:35:35;11.70;99.90
17968;DHT22;9109;48.050;11.696;2022-09-17T09:38:43;11.60;99.90
17968;DHT22;9109;48.050;11.696;2022-09-17T09:41:54;11.60;99.90
17968;DHT22;9109;48.050;11.696;2022-09-17T09:45:05;11.70;99.90
17968;DHT22;9109;48.050;11.696;2022-09-17T09:48:18;11.70;99.90
17968;DHT22;9109;48.050;11.696;2022-09-17T09:51:33;11.70;99.90
17968;DHT22;9109;48.050;11.696;2022-09-17T09:54:47;11.80;99.90
17968;DHT22;9109;48.050;11.696;2022-09-17T09:57:57;11.70;99.90
17968;DHT22;9109;48.050;11.696;2022-09-17T10:00:59;11.50;99.90
17968;DHT22;9109;48.050;11.696;2022-09-17T10:04:14;11.50;99.90
17968;DHT22;9109;48.050;11.696;2022-09-17T10:07:17;11.50;99.90
17968;DHT22;9109;48.050;11.696;2022-09-17T10:10:19;11.50;99.90
17968;DHT22;9109;48.050;11.696;2022-09-17T10:13:22;11.70;99.90
17968;DHT22;9109;48.050;11.696;2022-09-17T10:16:26;11.80;99.90
17968;DHT22;9109;48.050;11.696;2022-09-17T10:19:30;11.80;99.90
17968;DHT22;9109;48.050;11.696;2022-09-17T10:22:33;11.70;99.90
17968;DHT22;9109;48.050;11.696;2022-09-17T10:25:41;11.70;99.90
17968;DHT22;9109;48.050;11.696;2022-09-17T10:28:48;11.70;99.90
17968;DHT22;9109;48.050;11.696;2022-09-17T10:31:52;11.60;99.90
17968;DHT22;9109;48.050;11.696;2022-09-17T10:34:59;11.40;99.90
17968;DHT22;9109;48.050;11.696;2022-09-17T10:38:04;11.40;99.90
17968;DHT22;9109;48.050;11.696;2022-09-17T10:41:15;11.10;99.90
17968;DHT22;9109;48.050;11.696;2022-09-17T10:44:21;11.10;99.90
17968;DHT22;9109;48.050;11.696;2022-09-17T10:47:25;11.00;99.90
17968;DHT22;9109;48.050;11.696;2022-09-17T10:50:30;10.90;99.90
17968;DHT22;9109;48.050;11.696;2022-09-17T10:53:52;10.80;99.90
17968;DHT22;9109;48.050;11.696;2022-09-17T10:56:58;10.80;99.90
17968;DHT22;9109;48.050;11.696;2022-09-17T11:00:09;10.80;99.90
17968;DHT22;9109;48.050;11.696;2022-09-17T11:06:59;11.00;99.90
17968;DHT22;9109;48.050;11.696;2022-09-17T11:10:11;10.80;99.90
17968;DHT22;9109;48.050;11.696;2022-09-17T11:13:22;11.00;99.90
17968;DHT22;9109;48.050;11.696;2022-09-17T11:16:37;11.00;99.90
17968;DHT22;9109;48.050;11.696;2022-09-17T11:19:47;11.10;99.90
17968;DHT22;9109;48.050;11.696;2022-09-17T11:23:02;11.00;99.90
17968;DHT22;9109;48.050;11.696;2022-09-17T11:26:12;11.10;99.90
17968;DHT22;9109;48.050;11.696;2022-09-17T11:29:42;11.00;99.90
17968;DHT22;9109;48.050;11.696;2022-09-17T11:33:11;11.00;99.90
17968;DHT22;9109;48.050;11.696;2022-09-17T11:36:20;11.10;99.90
17968;DHT22;9109;48.050;11.696;2022-09-17T11:39:26;11.10;99.90
17968;DHT22;9109;48.050;11.696;2022-09-17T11:42:36;11.00;99.90
17968;DHT22;9109;48.050;11.696;2022-09-17T11:45:47;10.90;99.90
17968;DHT22;9109;48.050;11.696;2022-09-17T11:48:58;10.90;99.90
17968;DHT22;9109;48.050;11.696;2022-09-17T11:52:05;11.00;99.90
17968;DHT22;9109;48.050;11.696;2022-09-17T11:55:18;11.10;99.90
17968;DHT22;9109;48.050;11.696;2022-09-17T11:58:25;11.20;99.90
17968;DHT22;9109;48.050;11.696;2022-09-17T12:01:32;11.30;99.90
17968;DHT22;9109;48.050;11.696;2022-09-17T12:04:43;11.40;99.90
17968;DHT22;9109;48.050;11.696;2022-09-17T12:07:51;11.50;99.90
17968;DHT22;9109;48.050;11.696;2022-09-17T12:10:59;11.50;99.90
17968;DHT22;9109;48.050;11.696;2022-09-17T12:14:05;11.50;99.90
17968;DHT22;9109;48.050;11.696;2022-09-17T12:17:15;11.40;99.90
17968;DHT22;9109;48.050;11.696;2022-09-17T12:20:25;11.50;99.90
17968;DHT22;9109;48.050;11.696;2022-09-17T12:23:34;11.70;99.90
17968;DHT22;9109;48.050;11.696;2022-09-17T12:27:01;11.70;99.90
17968;DHT22;9109;48.050;11.696;2022-09-17T12:30:08;11.90;99.90
17968;DHT22;9109;48.050;11.696;2022-09-17T12:33:18;12.10;99.90
17968;DHT22;9109;48.050;11.696;2022-09-17T12:36:36;12.20;99.90
17968;DHT22;9109;48.050;11.696;2022-09-17T12:40:05;12.40;99.90
17968;DHT22;9109;48.050;11.696;2022-09-17T12:43:26;12.50;99.90
17968;DHT22;9109;48.050;11.696;2022-09-17T12:46:46;12.30;99.90
17968;DHT22;9109;48.050;11.696;2022-09-17T12:50:04;12.20;99.90
17968;DHT22;9109;48.050;11.696;2022-09-17T12:53:18;12.00;99.90
17968;DHT22;9109;48.050;11.696;2022-09-17T12:56:28;11.60;99.90
17968;DHT22;9109;48.050;11.696;2022-09-17T12:59:33;11.40;99.90
17968;DHT22;9109;48.050;11.696;2022-09-17T13:02:39;11.50;99.90
17968;DHT22;9109;48.050;11.696;2022-09-17T13:12:59;11.10;99.90
17968;DHT22;9109;48.050;11.696;2022-09-17T13:16:09;11.20;99.90
17968;DHT22;9109;48.050;11.696;2022-09-17T13:19:27;11.60;99.90
17968;DHT22;9109;48.050;11.696;2022-09-17T13:22:32;11.80;99.90
17968;DHT22;9109;48.050;11.696;2022-09-17T13:26:00;11.90;99.90
17968;DHT22;9109;48.050;11.696;2022-09-17T13:29:04;11.70;99.90
17968;DHT22;9109;48.050;11.696;2022-09-17T13:35:58;11.50;99.90
17968;DHT22;9109;48.050;11.696;2022-09-17T13:39:01;11.30;99.90
17968;DHT22;9109;48.050;11.696;2022-09-17T13:42:08;11.20;99.90
17968;DHT22;9109;48.050;11.696;2022-09-17T13:45:12;11.20;99.90
17968;DHT22;9109;48.050;11.696;2022-09-17T13:48:19;11.30;99.90
17968;DHT22;9109;48.050;11.696;2022-09-17T13:51:50;11.30;99.90
17968;DHT22;9109;48.050;11.696;2022-09-17T13:54:52;11.30;99.90
17968;DHT22;9109;48.050;11.696;2022-09-17T13:57:56;11.20;99.90
17968;DHT22;9109;48.050;11.696;2022-09-17T14:01:00;11.20;99.90
17968;DHT22;9109;48.050;11.696;2022-09-17T14:04:04;11.20;99.90
17968;DHT22;9109;48.050;11.696;2022-09-17T14:07:30;11.20;99.90
17968;DHT22;9109;48.050;11.696;2022-09-17T14:10:42;11.30;99.90
17968;DHT22;9109;48.050;11.696;2022-09-17T14:13:46;11.50;99.90
17968;DHT22;9109;48.050;11.696;2022-09-17T14:16:48;11.60;99.90
17968;DHT22;9109;48.050;11.696;2022-09-17T14:19:51;11.70;99.90
17968;DHT22;9109;48.050;11.696;2022-09-17T14:22:56;11.70;99.90
17968;DHT22;9109;48.050;11.696;2022-09-17T14:25:58;11.80;99.90
17968;DHT22;9109;48.050;11.696;2022-09-17T14:29:11;11.90;99.90
17968;DHT22;9109;48.050;11.696;2022-09-17T14:32:18;12.00;99.90
17968;DHT22;9109;48.050;11.696;2022-09-17T14:35:25;12.10;99.90
17968;DHT22;9109;48.050;11.696;2022-09-17T14:38:32;12.00;99.90
17968;DHT22;9109;48.050;11.696;2022-09-17T14:41:40;11.90;99.90
17968;DHT22;9109;48.050;11.696;2022-09-17T14:44:53;11.90;99.90
17968;DHT22;9109;48.050;11.696;2022-09-17T14:48:16;11.80;99.90
17968;DHT22;9109;48.050;11.696;2022-09-17T14:51:26;11.70;99.90
17968;DHT22;9109;48.050;11.696;2022-09-17T14:54:30;11.50;99.90
17968;DHT22;9109;48.050;11.696;2022-09-17T14:57:33;11.40;99.90
17968;DHT22;9109;48.050;11.696;2022-09-17T15:00:37;11.50;99.90
17968;DHT22;9109;48.050;11.696;2022-09-17T15:03:39;11.50;99.90
17968;DHT22;9109;48.050;11.696;2022-09-17T15:06:42;11.50;99.90
17968;DHT22;9109;48.050;11.696;2022-09-17T15:09:44;11.50;99.90
17968;DHT22;9109;48.050;11.696;2022-09-17T15:12:48;11.50;99.90
17968;DHT22;9109;48.050;11.696;2022-09-17T15:15:58;11.50;99.90
17968;DHT22;9109;48.050;11.696;2022-09-17T15:19:01;11.60;99.90
17968;DHT22;9109;48.050;11.696;2022-09-17T15:22:05;11.60;99.90
17968;DHT22;9109;48.050;11.696;2022-09-17T15:25:12;11.30;99.90
17968;DHT22;9109;48.050;11.696;2022-09-17T15:28:29;11.20;99.90
17968;DHT22;9109;48.050;11.696;2022-09-17T15:31:33;11.20;99.90
17968;DHT22;9109;48.050;11.696;2022-09-17T15:34:36;11.20;99.90
17968;DHT22;9109;48.050;11.696;2022-09-17T15:37:42;11.10;99.90
17968;DHT22;9109;48.050;11.696;2022-09-17T15:40:44;11.20;99.90
17968;DHT22;9109;48.050;11.696;2022-09-17T15:43:46;11.20;99.90
17968;DHT22;9109;48.050;11.696;2022-09-17T15:46:50;11.00;99.90
17968;DHT22;9109;48.050;11.696;2022-09-17T15:50:06;10.80;99.90
17968;DHT22;9109;48.050;11.696;2022-09-17T15:53:19;10.90;99.90
17968;DHT22;9109;48.050;11.696;2022-09-17T15:56:23;10.80;99.90
17968;DHT22;9109;48.050;11.696;2022-09-17T15:59:27;10.80;99.90
17968;DHT22;9109;48.050;11.696;2022-09-17T16:02:31;10.90;99.90
17968;DHT22;9109;48.050;11.696;2022-09-17T16:05:44;10.90;99.90
17968;DHT22;9109;48.050;11.696;2022-09-17T16:08:47;10.90;99.90
17968;DHT22;9109;48.050;11.696;2022-09-17T16:11:50;11.00;99.90
17968;DHT22;9109;48.050;11.696;2022-09-17T16:14:54;11.00;99.90
17968;DHT22;9109;48.050;11.696;2022-09-17T16:17:57;11.00;99.90
17968;DHT22;9109;48.050;11.696;2022-09-17T16:20:59;10.90;99.90
17968;DHT22;9109;48.050;11.696;2022-09-17T16:24:01;10.90;99.90
17968;DHT22;9109;48.050;11.696;2022-09-17T16:27:04;10.80;99.90
17968;DHT22;9109;48.050;11.696;2022-09-17T16:30:11;10.80;99.90
17968;DHT22;9109;48.050;11.696;2022-09-17T16:33:16;10.80;99.90
17968;DHT22;9109;48.050;11.696;2022-09-17T16:36:18;10.80;99.90
17968;DHT22;9109;48.050;11.696;2022-09-17T16:39:20;10.70;99.90
17968;DHT22;9109;48.050;11.696;2022-09-17T16:42:22;10.90;99.90
17968;DHT22;9109;48.050;11.696;2022-09-17T16:45:24;10.80;99.90
17968;DHT22;9109;48.050;11.696;2022-09-17T16:48:27;10.80;99.90
17968;DHT22;9109;48.050;11.696;2022-09-17T16:51:29;10.60;99.90
17968;DHT22;9109;48.050;11.696;2022-09-17T16:54:31;10.60;99.90
17968;DHT22;9109;48.050;11.696;2022-09-17T16:57:33;10.70;99.90
17968;DHT22;9109;48.050;11.696;2022-09-17T17:00:35;10.80;99.90
17968;DHT22;9109;48.050;11.696;2022-09-17T17:03:39;10.90;99.90
17968;DHT22;9109;48.050;11.696;2022-09-17T17:06:41;10.90;99.90
17968;DHT22;9109;48.050;11.696;2022-09-17T17:09:43;10.90;99.90
17968;DHT22;9109;48.050;11.696;2022-09-17T17:12:45;10.80;99.90
17968;DHT22;9109;48.050;11.696;2022-09-17T17:15:46;10.80;99.90
17968;DHT22;9109;48.050;11.696;2022-09-17T17:18:50;10.70;99.90
17968;DHT22;9109;48.050;11.696;2022-09-17T17:21:52;10.60;99.90
17968;DHT22;9109;48.050;11.696;2022-09-17T17:24:54;10.60;99.90
17968;DHT22;9109;48.050;11.696;2022-09-17T17:27:57;10.70;99.90
17968;DHT22;9109;48.050;11.696;2022-09-17T17:30:59;10.60;99.90
17968;DHT22;9109;48.050;11.696;2022-09-17T17:34:02;10.60;99.90
17968;DHT22;9109;48.050;11.696;2022-09-17T17:37:04;10.60;99.90
17968;DHT22;9109;48.050;11.696;2022-09-17T17:40:07;10.40;99.90
17968;DHT22;9109;48.050;11.696;2022-09-17T17:43:09;10.50;99.90
17968;DHT22;9109;48.050;11.696;2022-09-17T17:46:11;10.40;99.90
17968;DHT22;9109;48.050;11.696;2022-09-17T17:49:15;10.30;99.90
17968;DHT22;9109;48.050;11.696;2022-09-17T17:52:17;10.30;99.90
17968;DHT22;9109;48.050;11.696;2022-09-17T17:55:19;10.20;99.90
17968;DHT22;9109;48.050;11.696;2022-09-17T17:58:21;10.20;99.90
17968;DHT22;9109;48.050;11.696;2022-09-17T18:01:24;10.20;99.90
17968;DHT22;9109;48.050;11.696;2022-09-17T18:04:28;10.10;99.90
17968;DHT22;9109;48.050;11.696;2022-09-17T18:07:30;10.10;99.90
17968;DHT22;9109;48.050;11.696;2022-09-17T18:10:32;10.10;99.90
17968;DHT22;9109;48.050;11.696;2022-09-17T18:13:34;10.20;99.90
17968;DHT22;9109;48.050;11.696;2022-09-17T18:16:36;10.20;99.90
17968;DHT22;9109;48.050;11.696;2022-09-17T18:19:40;10.20;99.90
17968;DHT22;9109;48.050;11.696;2022-09-17T18:22:42;10.10;99.90
17968;DHT22;9109;48.050;11.696;2022-09-17T18:25:51;10.10;99.90
17968;DHT22;9109;48.050;11.696;2022-09-17T18:28:54;10.10;99.90
17968;DHT22;9109;48.050;11.696;2022-09-17T18:31:56;10.00;99.90
17968;DHT22;9109;48.050;11.696;2022-09-17T18:34:59;9.90;99.90
17968;DHT22;9109;48.050;11.696;2022-09-17T18:38:03;9.80;99.90
17968;DHT22;9109;48.050;11.696;2022-09-17T18:41:09;9.80;99.90
17968;DHT22;9109;48.050;11.696;2022-09-17T18:44:11;9.80;99.90
17968;DHT22;9109;48.050;11.696;2022-09-17T18:47:13;9.90;99.90
17968;DHT22;9109;48.050;11.696;2022-09-17T18:50:16;9.90;99.90
17968;DHT22;9109;48.050;11.696;2022-09-17T18:53:18;9.80;99.90
17968;DHT22;9109;48.050;11.696;2022-09-17T18:56:21;9.70;99.90
17968;DHT22;9109;48.050;11.696;2022-09-17T18:59:23;9.70;99.90
17968;DHT22;9109;48.050;11.696;2022-09-17T19:02:25;9.70;99.90
17968;DHT22;9109;48.050;11.696;2022-09-17T19:05:28;9.60;99.90
17968;DHT22;9109;48.050;11.696;2022-09-17T19:08:30;9.60;99.90
17968;DHT22;9109;48.050;11.696;2022-09-17T19:11:33;9.60;99.90
17968;DHT22;9109;48.050;11.696;2022-09-17T19:14:35;9.60;99.90
17968;DHT22;9109;48.050;11.696;2022-09-17T19:17:37;9.60;99.90
17968;DHT22;9109;48.050;11.696;2022-09-17T19:20:40;9.60;99.90
17968;DHT22;9109;48.050;11.696;2022-09-17T19:23:43;9.70;99.90
17968;DHT22;9109;48.050;11.696;2022-09-17T19:26:46;9.80;99.90
17968;DHT22;9109;48.050;11.696;2022-09-17T19:29:48;9.80;99.90
17968;DHT22;9109;48.050;11.696;2022-09-17T19:32:50;9.60;99.90
17968;DHT22;9109;48.050;11.696;2022-09-17T19:35:58;9.60;99.90
17968;DHT22;9109;48.050;11.696;2022-09-17T19:38:59;9.60;99.90
17968;DHT22;9109;48.050;11.696;2022-09-17T19:42:01;9.40;99.90
17968;DHT22;9109;48.050;11.696;2022-09-17T19:45:04;9.40;99.90
17968;DHT22;9109;48.050;11.696;2022-09-17T19:48:06;9.40;99.90
17968;DHT22;9109;48.050;11.696;2022-09-17T19:51:10;9.50;99.90
17968;DHT22;9109;48.050;11.696;2022-09-17T19:54:12;9.40;99.90
17968;DHT22;9109;48.050;11.696;2022-09-17T19:57:14;9.40;99.90
17968;DHT22;9109;48.050;11.696;2022-09-17T20:00:16;9.50;99.90
17968;DHT22;9109;48.050;11.696;2022-09-17T20:03:18;9.40;99.90
17968;DHT22;9109;48.050;11.696;2022-09-17T20:06:21;9.40;99.90
17968;DHT22;9109;48.050;11.696;2022-09-17T20:09:24;9.30;99.90
17968;DHT22;9109;48.050;11.696;2022-09-17T20:12:25;9.30;99.90
17968;DHT22;9109;48.050;11.696;2022-09-17T20:15:27;9.30;99.90
17968;DHT22;9109;48.050;11.696;2022-09-17T20:18:29;9.40;99.90
17968;DHT22;9109;48.050;11.696;2022-09-17T20:21:33;9.50;99.90
17968;DHT22;9109;48.050;11.696;2022-09-17T20:24:34;9.50;99.90
17968;DHT22;9109;48.050;11.696;2022-09-17T20:27:37;9.60;99.90
17968;DHT22;9109;48.050;11.696;2022-09-17T20:30:39;9.60;99.90
17968;DHT22;9109;48.050;11.696;2022-09-17T20:33:41;9.60;99.90
17968;DHT22;9109;48.050;11.696;2022-09-17T20:36:44;9.70;99.90
17968;DHT22;9109;48.050;11.696;2022-09-17T20:39:46;9.80;99.90
17968;DHT22;9109;48.050;11.696;2022-09-17T20:42:48;9.80;99.90
17968;DHT22;9109;48.050;11.696;2022-09-17T20:45:53;9.90;99.90
17968;DHT22;9109;48.050;11.696;2022-09-17T20:48:55;9.80;99.90
17968;DHT22;9109;48.050;11.696;2022-09-17T20:51:59;9.70;99.90
17968;DHT22;9109;48.050;11.696;2022-09-17T20:55:01;9.60;99.90
17968;DHT22;9109;48.050;11.696;2022-09-17T20:58:03;9.60;99.90
17968;DHT22;9109;48.050;11.696;2022-09-17T21:01:08;9.60;99.90
17968;DHT22;9109;48.050;11.696;2022-09-17T21:04:14;9.70;99.90
17968;DHT22;9109;48.050;11.696;2022-09-17T21:07:19;9.70;99.90
17968;DHT22;9109;48.050;11.696;2022-09-17T21:10:21;9.70;99.90
17968;DHT22;9109;48.050;11.696;2022-09-17T21:14:18;9.80;99.90
17968;DHT22;9109;48.050;11.696;2022-09-17T21:17:26;9.80;99.90
17968;DHT22;9109;48.050;11.696;2022-09-17T21:20:45;9.70;99.90
17968;DHT22;9109;48.050;11.696;2022-09-17T21:24:00;9.70;99.90
17968;DHT22;9109;48.050;11.696;2022-09-17T21:27:09;9.70;99.90
17968;DHT22;9109;48.050;11.696;2022-09-17T21:30:12;9.70;99.90
17968;DHT22;9109;48.050;11.696;2022-09-17T21:33:32;9.70;99.90
17968;DHT22;9109;48.050;11.696;2022-09-17T21:36:41;9.70;99.90
17968;DHT22;9109;48.050;11.696;2022-09-17T21:39:45;9.70;99.90
17968;DHT22;9109;48.050;11.696;2022-09-17T21:43:14;9.60;99.90
17968;DHT22;9109;48.050;11.696;2022-09-17T21:46:38;9.80;99.90
17968;DHT22;9109;48.050;11.696;2022-09-17T21:49:49;9.90;99.90
17968;DHT22;9109;48.050;11.696;2022-09-17T21:53:11;9.50;99.90
17968;DHT22;9109;48.050;11.696;2022-09-17T21:56:31;9.30;99.90
17968;DHT22;9109;48.050;11.696;2022-09-17T22:00:02;9.20;99.90
17968;DHT22;9109;48.050;11.696;2022-09-17T22:03:27;9.00;99.90
17968;DHT22;9109;48.050;11.696;2022-09-17T22:06:47;9.00;99.90
17968;DHT22;9109;48.050;11.696;2022-09-17T22:09:55;9.00;99.90
17968;DHT22;9109;48.050;11.696;2022-09-17T22:17:17;8.60;99.90
17968;DHT22;9109;48.050;11.696;2022-09-17T22:24:15;8.50;99.90
17968;DHT22;9109;48.050;11.696;2022-09-17T22:31:34;8.60;99.90
